sensor_id;sensor_type;location;lat;lon;timestamp;pressure;altitude;pressure_sealevel;temperature;humidity
75551;BME280;65071;53.082;18.218;2023-02-28T00:00:37;102894.30;;;-3.89;72.35
75551;BME280;65071;53.082;18.218;2023-02-28T00:03:16;102899.58;;;-3.93;72.26
75551;BME280;65071;53.082;18.218;2023-02-28T00:05:42;102895.73;;;-3.94;72.34
75551;BME280;65071;53.082;18.218;2023-02-28T00:08:09;102893.64;;;-3.95;71.85
75551;BME280;65071;53.082;18.218;2023-02-28T00:10:36;102890.98;;;-3.95;71.81
75551;BME280;65071;53.082;18.218;2023-02-28T00:13:05;102894.48;;;-3.92;71.30
75551;BME280;65071;53.082;18.218;2023-02-28T00:15:32;102891.13;;;-3.89;71.15
75551;BME280;65071;53.082;18.218;2023-02-28T00:17:59;102891.13;;;-3.88;71.53
75551;BME280;65071;53.082;18.218;2023-02-28T00:20:26;102893.23;;;-3.87;71.33
75551;BME280;65071;53.082;18.218;2023-02-28T00:22:53;102894.28;;;-3.88;72.11
75551;BME280;65071;53.082;18.218;2023-02-28T00:25:23;102898.88;;;-3.91;72.70
75551;BME280;65071;53.082;18.218;2023-02-28T00:27:50;102897.65;;;-3.93;72.94
75551;BME280;65071;53.082;18.218;2023-02-28T00:30:22;102899.07;;;-3.95;72.65
75551;BME280;65071;53.082;18.218;2023-02-28T00:32:49;102898.39;;;-3.98;72.73
75551;BME280;65071;53.082;18.218;2023-02-28T00:35:16;102893.48;;;-4.01;72.86
75551;BME280;65071;53.082;18.218;2023-02-28T00:37:43;102891.23;;;-4.04;72.75
75551;BME280;65071;53.082;18.218;2023-02-28T00:40:10;102890.19;;;-4.08;73.51
75551;BME280;65071;53.082;18.218;2023-02-28T00:42:38;102895.48;;;-4.11;73.48
75551;BME280;65071;53.082;18.218;2023-02-28T00:45:06;102894.97;;;-4.14;73.51
75551;BME280;65071;53.082;18.218;2023-02-28T00:47:33;102896.03;;;-4.17;73.56
75551;BME280;65071;53.082;18.218;2023-02-28T00:50:00;102892.17;;;-4.20;74.11
75551;BME280;65071;53.082;18.218;2023-02-28T00:52:28;102897.10;;;-4.20;73.13
75551;BME280;65071;53.082;18.218;2023-02-28T00:54:55;102901.67;;;-4.21;73.37
75551;BME280;65071;53.082;18.218;2023-02-28T00:57:22;102906.61;;;-4.21;72.88
75551;BME280;65071;53.082;18.218;2023-02-28T00:59:49;102902.38;;;-4.23;73.25
75551;BME280;65071;53.082;18.218;2023-02-28T01:02:16;102904.67;;;-4.23;72.74
75551;BME280;65071;53.082;18.218;2023-02-28T01:04:44;102902.73;;;-4.25;72.65
75551;BME280;65071;53.082;18.218;2023-02-28T01:07:11;102902.58;;;-4.26;73.11
75551;BME280;65071;53.082;18.218;2023-02-28T01:09:37;102904.86;;;-4.27;73.71
75551;BME280;65071;53.082;18.218;2023-02-28T01:12:05;102907.16;;;-4.30;73.94
75551;BME280;65071;53.082;18.218;2023-02-28T01:14:33;102911.91;;;-4.31;73.09
75551;BME280;65071;53.082;18.218;2023-02-28T01:17:00;102911.92;;;-4.32;73.21
75551;BME280;65071;53.082;18.218;2023-02-28T01:19:27;102911.92;;;-4.34;73.21
75551;BME280;65071;53.082;18.218;2023-02-28T01:21:54;102910.17;;;-4.35;73.09
75551;BME280;65071;53.082;18.218;2023-02-28T01:24:20;102906.30;;;-4.35;72.71
75551;BME280;65071;53.082;18.218;2023-02-28T01:26:47;102907.02;;;-4.35;72.98
75551;BME280;65071;53.082;18.218;2023-02-28T01:29:14;102903.84;;;-4.34;73.05
75551;BME280;65071;53.082;18.218;2023-02-28T01:31:41;102904.20;;;-4.32;72.84
75551;BME280;65071;53.082;18.218;2023-02-28T01:34:08;102905.24;;;-4.33;72.79
75551;BME280;65071;53.082;18.218;2023-02-28T01:36:35;102903.13;;;-4.34;73.00
75551;BME280;65071;53.082;18.218;2023-02-28T01:39:02;102902.96;;;-4.34;72.82
75551;BME280;65071;53.082;18.218;2023-02-28T01:41:32;102900.85;;;-4.35;72.73
75551;BME280;65071;53.082;18.218;2023-02-28T01:44:03;102899.81;;;-4.36;73.25
75551;BME280;65071;53.082;18.218;2023-02-28T01:46:33;102896.84;;;-4.36;72.85
75551;BME280;65071;53.082;18.218;2023-02-28T01:49:10;102899.27;;;-4.34;72.75
75551;BME280;65071;53.082;18.218;2023-02-28T01:51:45;102895.75;;;-4.32;72.73
75551;BME280;65071;53.082;18.218;2023-02-28T01:54:22;102900.33;;;-4.32;73.19
75551;BME280;65071;53.082;18.218;2023-02-28T01:56:57;102898.75;;;-4.34;73.06
75551;BME280;65071;53.082;18.218;2023-02-28T01:59:29;102898.23;;;-4.37;73.00
75551;BME280;65071;53.082;18.218;2023-02-28T02:01:58;102892.10;;;-4.40;72.65
75551;BME280;65071;53.082;18.218;2023-02-28T02:04:33;102894.39;;;-4.42;73.13
75551;BME280;65071;53.082;18.218;2023-02-28T02:07:03;102890.55;;;-4.45;73.57
75551;BME280;65071;53.082;18.218;2023-02-28T02:09:30;102890.73;;;-4.48;74.15
75551;BME280;65071;53.082;18.218;2023-02-28T02:11:57;102886.36;;;-4.54;73.89
75551;BME280;65071;53.082;18.218;2023-02-28T02:14:36;102884.27;;;-4.58;74.34
75551;BME280;65071;53.082;18.218;2023-02-28T02:17:16;102887.11;;;-4.62;74.45
75551;BME280;65071;53.082;18.218;2023-02-28T02:26:35;102895.39;;;-4.78;74.76
75551;BME280;65071;53.082;18.218;2023-02-28T02:37:19;102902.05;;;-4.75;73.63
75551;BME280;65071;53.082;18.218;2023-02-28T02:39:53;102900.82;;;-4.74;73.08
75551;BME280;65071;53.082;18.218;2023-02-28T02:42:26;102900.99;;;-4.73;73.46
75551;BME280;65071;53.082;18.218;2023-02-28T02:45:00;102902.05;;;-4.74;73.71
75551;BME280;65071;53.082;18.218;2023-02-28T02:47:30;102899.78;;;-4.75;73.55
75551;BME280;65071;53.082;18.218;2023-02-28T02:50:02;102901.55;;;-4.77;73.79
75551;BME280;65071;53.082;18.218;2023-02-28T02:52:40;102903.12;;;-4.78;73.90
75551;BME280;65071;53.082;18.218;2023-02-28T02:55:11;102902.77;;;-4.81;73.97
75551;BME280;65071;53.082;18.218;2023-02-28T02:57:56;102908.91;;;-4.84;74.22
75551;BME280;65071;53.082;18.218;2023-02-28T03:00:38;102909.98;;;-4.92;75.37
75551;BME280;65071;53.082;18.218;2023-02-28T03:03:10;102903.67;;;-5.00;74.53
75551;BME280;65071;53.082;18.218;2023-02-28T03:05:49;102905.97;;;-5.04;74.24
75551;BME280;65071;53.082;18.218;2023-02-28T03:08:16;102905.09;;;-5.07;74.01
75551;BME280;65071;53.082;18.218;2023-02-28T03:10:46;102904.39;;;-5.06;74.27
75551;BME280;65071;53.082;18.218;2023-02-28T03:21:28;102904.91;;;-5.04;73.99
75551;BME280;65071;53.082;18.218;2023-02-28T03:24:04;102902.64;;;-5.03;73.81
75551;BME280;65071;53.082;18.218;2023-02-28T03:26:38;102903.86;;;-5.03;73.83
75551;BME280;65071;53.082;18.218;2023-02-28T03:31:50;102906.31;;;-4.99;73.66
75551;BME280;65071;53.082;18.218;2023-02-28T03:34:25;102912.11;;;-4.94;73.70
75551;BME280;65071;53.082;18.218;2023-02-28T03:37:02;102912.61;;;-4.93;73.80
75551;BME280;65071;53.082;18.218;2023-02-28T03:39:39;102914.38;;;-4.94;73.64
75551;BME280;65071;53.082;18.218;2023-02-28T03:42:20;102916.12;;;-4.92;73.48
75551;BME280;65071;53.082;18.218;2023-02-28T03:44:55;102918.75;;;-4.88;73.41
75551;BME280;65071;53.082;18.218;2023-02-28T03:47:33;102921.56;;;-4.85;73.71
75551;BME280;65071;53.082;18.218;2023-02-28T03:50:27;102919.80;;;-4.84;73.52
75551;BME280;65071;53.082;18.218;2023-02-28T03:53:04;102922.60;;;-4.81;73.58
75551;BME280;65071;53.082;18.218;2023-02-28T03:55:38;102922.06;;;-4.75;73.25
75551;BME280;65071;53.082;18.218;2023-02-28T03:58:35;102922.05;;;-4.72;73.24
75551;BME280;65071;53.082;18.218;2023-02-28T04:01:11;102920.65;;;-4.71;73.43
75551;BME280;65071;53.082;18.218;2023-02-28T04:03:38;102922.04;;;-4.70;73.58
75551;BME280;65071;53.082;18.218;2023-02-28T04:06:08;102923.98;;;-4.71;73.90
75551;BME280;65071;53.082;18.218;2023-02-28T04:08:39;102921.88;;;-4.75;73.35
75551;BME280;65071;53.082;18.218;2023-02-28T04:13:57;102930.67;;;-4.80;73.63
75551;BME280;65071;53.082;18.218;2023-02-28T04:16:23;102935.41;;;-4.86;74.20
75551;BME280;65071;53.082;18.218;2023-02-28T04:18:50;102935.07;;;-4.92;73.75
75551;BME280;65071;53.082;18.218;2023-02-28T04:21:16;102937.36;;;-4.99;73.64
75551;BME280;65071;53.082;18.218;2023-02-28T04:23:47;102936.33;;;-5.06;73.97
75551;BME280;65071;53.082;18.218;2023-02-28T04:26:13;102935.27;;;-5.12;74.00
75551;BME280;65071;53.082;18.218;2023-02-28T04:28:40;102931.77;;;-5.17;73.72
75551;BME280;65071;53.082;18.218;2023-02-28T04:31:06;102932.30;;;-5.20;74.26
75551;BME280;65071;53.082;18.218;2023-02-28T04:33:33;102933.87;;;-5.25;74.74
75551;BME280;65071;53.082;18.218;2023-02-28T04:36:02;102940.54;;;-5.28;74.76
75551;BME280;65071;53.082;18.218;2023-02-28T04:38:33;102943.17;;;-5.28;74.29
75551;BME280;65071;53.082;18.218;2023-02-28T04:41:00;102940.54;;;-5.28;74.65
75551;BME280;65071;53.082;18.218;2023-02-28T04:43:27;102943.69;;;-5.28;74.30
75551;BME280;65071;53.082;18.218;2023-02-28T04:45:55;102942.81;;;-5.26;73.80
75551;BME280;65071;53.082;18.218;2023-02-28T04:48:24;102941.23;;;-5.25;74.09
75551;BME280;65071;53.082;18.218;2023-02-28T04:50:51;102946.85;;;-5.23;73.83
75551;BME280;65071;53.082;18.218;2023-02-28T04:53:18;102946.68;;;-5.20;74.05
75551;BME280;65071;53.082;18.218;2023-02-28T04:55:45;102941.23;;;-5.18;73.72
75551;BME280;65071;53.082;18.218;2023-02-28T04:58:15;102942.98;;;-5.17;73.93
75551;BME280;65071;53.082;18.218;2023-02-28T05:00:42;102946.50;;;-5.17;74.09
75551;BME280;65071;53.082;18.218;2023-02-28T05:03:09;102944.92;;;-5.17;74.43
75551;BME280;65071;53.082;18.218;2023-02-28T05:05:36;102949.84;;;-5.15;74.00
75551;BME280;65071;53.082;18.218;2023-02-28T05:08:03;102946.33;;;-5.09;73.68
75551;BME280;65071;53.082;18.218;2023-02-28T05:10:31;102941.23;;;-5.07;73.68
75551;BME280;65071;53.082;18.218;2023-02-28T05:12:58;102941.94;;;-5.06;73.86
75551;BME280;65071;53.082;18.218;2023-02-28T05:15:25;102947.36;;;-5.04;73.85
75551;BME280;65071;53.082;18.218;2023-02-28T05:17:51;102950.35;;;-5.02;73.72
75551;BME280;65071;53.082;18.218;2023-02-28T05:20:18;102951.40;;;-5.01;73.70
75551;BME280;65071;53.082;18.218;2023-02-28T05:22:45;102953.86;;;-5.01;73.84
75551;BME280;65071;53.082;18.218;2023-02-28T05:25:17;102953.85;;;-5.02;73.72
75551;BME280;65071;53.082;18.218;2023-02-28T05:27:44;102950.88;;;-5.06;74.10
75551;BME280;65071;53.082;18.218;2023-02-28T05:30:11;102947.73;;;-5.06;73.60
75551;BME280;65071;53.082;18.218;2023-02-28T05:32:38;102946.86;;;-5.04;73.62
75551;BME280;65071;53.082;18.218;2023-02-28T05:35:12;102945.61;;;-5.02;73.78
75551;BME280;65071;53.082;18.218;2023-02-28T05:37:39;102948.06;;;-4.99;73.48
75551;BME280;65071;53.082;18.218;2023-02-28T05:40:06;102947.89;;;-4.99;73.76
75551;BME280;65071;53.082;18.218;2023-02-28T05:42:36;102949.13;;;-5.01;73.60
75551;BME280;65071;53.082;18.218;2023-02-28T05:45:04;102951.93;;;-5.03;73.94
75551;BME280;65071;53.082;18.218;2023-02-28T05:47:31;102955.79;;;-5.03;73.81
75551;BME280;65071;53.082;18.218;2023-02-28T05:49:58;102959.48;;;-5.04;73.93
75551;BME280;65071;53.082;18.218;2023-02-28T05:52:24;102961.77;;;-5.08;73.83
75551;BME280;65071;53.082;18.218;2023-02-28T05:54:51;102959.65;;;-5.13;73.84
75551;BME280;65071;53.082;18.218;2023-02-28T05:57:17;102964.40;;;-5.14;74.19
75551;BME280;65071;53.082;18.218;2023-02-28T05:59:44;102967.73;;;-5.16;74.55
75551;BME280;65071;53.082;18.218;2023-02-28T06:02:13;102969.30;;;-5.15;74.34
75551;BME280;65071;53.082;18.218;2023-02-28T06:04:40;102972.80;;;-5.13;74.01
75551;BME280;65071;53.082;18.218;2023-02-28T06:07:08;102970.35;;;-5.09;73.98
75551;BME280;65071;53.082;18.218;2023-02-28T06:09:36;102968.95;;;-5.04;74.05
75551;BME280;65071;53.082;18.218;2023-02-28T06:12:04;102972.45;;;-4.99;73.82
75551;BME280;65071;53.082;18.218;2023-02-28T06:14:33;102974.20;;;-4.94;74.05
75551;BME280;65071;53.082;18.218;2023-02-28T06:17:00;102976.48;;;-4.88;73.94
75551;BME280;65071;53.082;18.218;2023-02-28T06:19:27;102981.58;;;-4.82;74.03
75551;BME280;65071;53.082;18.218;2023-02-28T06:21:56;102975.95;;;-4.76;74.01
75551;BME280;65071;53.082;18.218;2023-02-28T06:24:24;102978.04;;;-4.68;73.58
75551;BME280;65071;53.082;18.218;2023-02-28T06:26:51;102980.83;;;-4.55;73.53
75551;BME280;65071;53.082;18.218;2023-02-28T06:29:17;102976.75;;;-4.43;73.58
75551;BME280;65071;53.082;18.218;2023-02-28T06:31:45;102977.95;;;-4.31;73.43
75551;BME280;65071;53.082;18.218;2023-02-28T06:34:13;102976.33;;;-4.21;73.31
75551;BME280;65071;53.082;18.218;2023-02-28T06:36:41;102979.11;;;-4.11;72.83
75551;BME280;65071;53.082;18.218;2023-02-28T06:39:08;102977.65;;;-3.99;73.03
75551;BME280;65071;53.082;18.218;2023-02-28T06:41:35;102980.40;;;-3.87;73.00
75551;BME280;65071;53.082;18.218;2023-02-28T06:44:15;102983.66;;;-3.73;72.90
75551;BME280;65071;53.082;18.218;2023-02-28T06:46:43;102980.25;;;-3.58;72.92
75551;BME280;65071;53.082;18.218;2023-02-28T06:49:11;102984.73;;;-3.43;72.83
75551;BME280;65071;53.082;18.218;2023-02-28T06:51:42;102987.80;;;-3.30;72.82
75551;BME280;65071;53.082;18.218;2023-02-28T06:54:13;102987.18;;;-3.17;72.86
75551;BME280;65071;53.082;18.218;2023-02-28T06:56:40;102987.61;;;-3.05;72.60
75551;BME280;65071;53.082;18.218;2023-02-28T06:59:06;102986.83;;;-2.96;72.47
75551;BME280;65071;53.082;18.218;2023-02-28T07:01:33;102995.58;;;-2.89;72.33
75551;BME280;65071;53.082;18.218;2023-02-28T07:04:00;103002.02;;;-2.82;72.32
75551;BME280;65071;53.082;18.218;2023-02-28T07:06:27;103004.79;;;-2.76;72.49
75551;BME280;65071;53.082;18.218;2023-02-28T07:08:55;103009.27;;;-2.65;72.91
75551;BME280;65071;53.082;18.218;2023-02-28T07:11:24;103006.55;;;-2.57;73.03
75551;BME280;65071;53.082;18.218;2023-02-28T07:13:55;103006.14;;;-2.53;73.08
75551;BME280;65071;53.082;18.218;2023-02-28T07:16:23;103003.08;;;-2.46;72.97
75551;BME280;65071;53.082;18.218;2023-02-28T07:18:53;103006.41;;;-2.45;73.61
75551;BME280;65071;53.082;18.218;2023-02-28T07:21:21;103005.34;;;-2.41;74.06
75551;BME280;65071;53.082;18.218;2023-02-28T07:23:48;103008.25;;;-2.34;74.23
75551;BME280;65071;53.082;18.218;2023-02-28T07:26:17;103006.77;;;-2.28;75.24
75551;BME280;65071;53.082;18.218;2023-02-28T07:28:46;103002.64;;;-2.22;75.75
75551;BME280;65071;53.082;18.218;2023-02-28T07:31:13;103002.15;;;-2.08;75.61
75551;BME280;65071;53.082;18.218;2023-02-28T07:33:41;102996.90;;;-1.98;75.48
75551;BME280;65071;53.082;18.218;2023-02-28T07:36:10;103001.13;;;-1.84;75.20
75551;BME280;65071;53.082;18.218;2023-02-28T07:38:45;102995.33;;;-1.72;75.56
75551;BME280;65071;53.082;18.218;2023-02-28T07:41:16;102998.84;;;-1.59;75.61
75551;BME280;65071;53.082;18.218;2023-02-28T07:43:43;102995.88;;;-1.48;75.46
75551;BME280;65071;53.082;18.218;2023-02-28T07:46:12;102998.91;;;-1.37;75.31
75551;BME280;65071;53.082;18.218;2023-02-28T07:48:42;102998.14;;;-1.22;75.00
75551;BME280;65071;53.082;18.218;2023-02-28T07:51:09;102998.23;;;-1.05;75.16
75551;BME280;65071;53.082;18.218;2023-02-28T07:53:36;102998.30;;;-0.89;74.93
75551;BME280;65071;53.082;18.218;2023-02-28T07:56:03;102995.77;;;-0.74;74.54
75551;BME280;65071;53.082;18.218;2023-02-28T07:58:30;103001.14;;;-0.59;74.50
75551;BME280;65071;53.082;18.218;2023-02-28T08:00:57;103001.59;;;-0.44;74.61
75551;BME280;65071;53.082;18.218;2023-02-28T08:03:31;102997.59;;;-0.30;74.12
75551;BME280;65071;53.082;18.218;2023-02-28T08:05:57;102995.40;;;-0.17;74.18
75551;BME280;65071;53.082;18.218;2023-02-28T08:08:28;102999.34;;;-0.02;73.83
75551;BME280;65071;53.082;18.218;2023-02-28T08:11:02;103005.00;;;0.16;73.74
75551;BME280;65071;53.082;18.218;2023-02-28T08:13:30;103007.50;;;0.31;73.21
75551;BME280;65071;53.082;18.218;2023-02-28T08:15:57;103001.86;;;0.46;73.06
75551;BME280;65071;53.082;18.218;2023-02-28T08:18:23;103004.23;;;0.58;72.89
75551;BME280;65071;53.082;18.218;2023-02-28T08:20:50;103008.02;;;0.70;72.35
75551;BME280;65071;53.082;18.218;2023-02-28T08:23:17;103002.56;;;0.84;72.80
75551;BME280;65071;53.082;18.218;2023-02-28T08:25:44;102995.51;;;0.98;72.34
75551;BME280;65071;53.082;18.218;2023-02-28T08:28:11;102995.17;;;1.11;72.05
75551;BME280;65071;53.082;18.218;2023-02-28T08:30:37;102994.73;;;1.21;71.70
75551;BME280;65071;53.082;18.218;2023-02-28T08:33:07;102991.45;;;1.31;71.18
75551;BME280;65071;53.082;18.218;2023-02-28T08:35:36;102989.42;;;1.41;71.08
75551;BME280;65071;53.082;18.218;2023-02-28T08:38:03;102990.69;;;1.54;71.28
75551;BME280;65071;53.082;18.218;2023-02-28T08:40:30;102987.36;;;1.59;69.31
75551;BME280;65071;53.082;18.218;2023-02-28T08:42:57;102982.65;;;1.63;68.89
75551;BME280;65071;53.082;18.218;2023-02-28T08:45:24;102984.03;;;1.70;69.70
75551;BME280;65071;53.082;18.218;2023-02-28T08:47:51;102981.79;;;1.81;69.76
75551;BME280;65071;53.082;18.218;2023-02-28T08:50:21;102975.48;;;1.90;69.28
75551;BME280;65071;53.082;18.218;2023-02-28T08:52:48;102975.92;;;2.00;69.66
75551;BME280;65071;53.082;18.218;2023-02-28T08:55:14;102978.58;;;2.12;69.64
75551;BME280;65071;53.082;18.218;2023-02-28T08:57:41;102979.81;;;2.24;69.30
75551;BME280;65071;53.082;18.218;2023-02-28T09:00:09;102976.42;;;2.36;67.71
75551;BME280;65071;53.082;18.218;2023-02-28T09:02:40;102973.23;;;2.48;68.18
75551;BME280;65071;53.082;18.218;2023-02-28T09:05:09;102969.55;;;2.63;67.80
75551;BME280;65071;53.082;18.218;2023-02-28T09:07:36;102974.73;;;2.73;66.50
75551;BME280;65071;53.082;18.218;2023-02-28T09:10:04;102970.52;;;2.82;66.77
75551;BME280;65071;53.082;18.218;2023-02-28T09:12:33;102972.54;;;2.91;66.75
75551;BME280;65071;53.082;18.218;2023-02-28T09:15:01;102973.14;;;3.00;66.14
75551;BME280;65071;53.082;18.218;2023-02-28T09:17:28;102971.51;;;3.06;66.89
75551;BME280;65071;53.082;18.218;2023-02-28T09:19:55;102974.24;;;3.10;66.19
75551;BME280;65071;53.082;18.218;2023-02-28T09:22:24;102971.52;;;3.16;65.96
75551;BME280;65071;53.082;18.218;2023-02-28T09:24:51;102975.21;;;3.22;65.19
75551;BME280;65071;53.082;18.218;2023-02-28T09:27:18;102976.41;;;3.24;63.72
75551;BME280;65071;53.082;18.218;2023-02-28T09:29:45;102976.46;;;3.28;64.93
75551;BME280;65071;53.082;18.218;2023-02-28T09:32:12;102979.08;;;3.34;64.27
75551;BME280;65071;53.082;18.218;2023-02-28T09:34:39;102975.85;;;3.40;64.72
75551;BME280;65071;53.082;18.218;2023-02-28T09:37:06;102971.58;;;3.45;63.98
75551;BME280;65071;53.082;18.218;2023-02-28T09:39:32;102975.36;;;3.49;63.65
75551;BME280;65071;53.082;18.218;2023-02-28T09:42:01;102980.56;;;3.52;62.67
75551;BME280;65071;53.082;18.218;2023-02-28T09:44:31;102978.52;;;3.55;62.44
75551;BME280;65071;53.082;18.218;2023-02-28T09:49:55;102978.36;;;3.60;62.37
75551;BME280;65071;53.082;18.218;2023-02-28T09:52:29;102976.34;;;3.66;62.47
75551;BME280;65071;53.082;18.218;2023-02-28T10:12:05;102970.54;;;4.30;60.65
75551;BME280;65071;53.082;18.218;2023-02-28T10:14:34;102969.42;;;4.27;59.99
75551;BME280;65071;53.082;18.218;2023-02-28T10:17:04;102967.67;;;4.22;59.52
75551;BME280;65071;53.082;18.218;2023-02-28T10:19:46;102966.43;;;4.17;60.49
75551;BME280;65071;53.082;18.218;2023-02-28T10:22:17;102962.09;;;4.10;59.16
75551;BME280;65071;53.082;18.218;2023-02-28T10:24:53;102964.25;;;4.04;58.58
75551;BME280;65071;53.082;18.218;2023-02-28T10:27:30;102961.73;;;4.00;58.13
75551;BME280;65071;53.082;18.218;2023-02-28T10:30:00;102956.92;;;4.01;59.37
75551;BME280;65071;53.082;18.218;2023-02-28T10:32:34;102953.61;;;4.04;59.31
75551;BME280;65071;53.082;18.218;2023-02-28T10:35:16;102946.53;;;4.07;58.59
75551;BME280;65071;53.082;18.218;2023-02-28T10:37:49;102940.92;;;4.09;58.47
75551;BME280;65071;53.082;18.218;2023-02-28T10:43:24;102945.21;;;4.18;56.59
75551;BME280;65071;53.082;18.218;2023-02-28T10:53:29;102933.70;;;4.21;58.28
75551;BME280;65071;53.082;18.218;2023-02-28T10:58:28;102924.40;;;4.30;56.44
75551;BME280;65071;53.082;18.218;2023-02-28T11:00:55;102924.11;;;4.38;56.97
75551;BME280;65071;53.082;18.218;2023-02-28T11:03:30;102924.77;;;4.44;56.14
75551;BME280;65071;53.082;18.218;2023-02-28T11:06:04;102922.29;;;4.48;55.27
75551;BME280;65071;53.082;18.218;2023-02-28T11:08:32;102919.39;;;4.49;53.67
75551;BME280;65071;53.082;18.218;2023-02-28T11:11:04;102918.54;;;4.49;54.98
75551;BME280;65071;53.082;18.218;2023-02-28T11:13:34;102924.42;;;4.44;52.49
75551;BME280;65071;53.082;18.218;2023-02-28T11:16:04;102922.16;;;4.43;54.28
75551;BME280;65071;53.082;18.218;2023-02-28T11:21:02;102915.05;;;4.51;55.55
75551;BME280;65071;53.082;18.218;2023-02-28T11:23:31;102917.80;;;4.49;52.87
75551;BME280;65071;53.082;18.218;2023-02-28T11:26:02;102921.56;;;4.40;52.62
75551;BME280;65071;53.082;18.218;2023-02-28T11:28:36;102918.09;;;4.37;53.95
75551;BME280;65071;53.082;18.218;2023-02-28T11:33:51;102910.55;;;4.43;55.05
75551;BME280;65071;53.082;18.218;2023-02-28T11:36:28;102909.23;;;4.45;54.76
75551;BME280;65071;53.082;18.218;2023-02-28T11:39:08;102909.22;;;4.45;53.67
75551;BME280;65071;53.082;18.218;2023-02-28T11:47:06;102901.56;;;4.54;54.24
75551;BME280;65071;53.082;18.218;2023-02-28T11:49:48;102893.63;;;4.57;54.70
75551;BME280;65071;53.082;18.218;2023-02-28T12:06:22;102877.00;;;4.57;54.42
75551;BME280;65071;53.082;18.218;2023-02-28T12:09:40;102876.22;;;4.60;53.43
75551;BME280;65071;53.082;18.218;2023-02-28T12:12:34;102876.13;;;4.62;52.88
75551;BME280;65071;53.082;18.218;2023-02-28T12:15:19;102875.74;;;4.62;53.34
75551;BME280;65071;53.082;18.218;2023-02-28T12:18:22;102873.05;;;4.63;54.04
75551;BME280;65071;53.082;18.218;2023-02-28T12:21:10;102873.30;;;4.65;54.56
75551;BME280;65071;53.082;18.218;2023-02-28T12:29:29;102867.19;;;4.67;52.46
75551;BME280;65071;53.082;18.218;2023-02-28T12:32:13;102865.80;;;4.70;52.75
75551;BME280;65071;53.082;18.218;2023-02-28T12:34:47;102862.83;;;4.73;52.46
75551;BME280;65071;53.082;18.218;2023-02-28T12:37:21;102858.42;;;4.76;52.31
75551;BME280;65071;53.082;18.218;2023-02-28T12:39:55;102862.21;;;4.74;48.32
75551;BME280;65071;53.082;18.218;2023-02-28T12:42:29;102861.33;;;4.74;49.49
75551;BME280;65071;53.082;18.218;2023-02-28T12:45:00;102858.64;;;4.75;50.64
75551;BME280;65071;53.082;18.218;2023-02-28T12:47:28;102857.80;;;4.77;51.65
75551;BME280;65071;53.082;18.218;2023-02-28T12:50:05;102855.61;;;4.79;51.68
75551;BME280;65071;53.082;18.218;2023-02-28T12:52:54;102854.91;;;4.82;51.57
75551;BME280;65071;53.082;18.218;2023-02-28T12:55:44;102845.50;;;4.86;51.75
75551;BME280;65071;53.082;18.218;2023-02-28T12:58:34;102842.68;;;4.89;50.63
75551;BME280;65071;53.082;18.218;2023-02-28T13:01:11;102833.92;;;4.90;49.59
75551;BME280;65071;53.082;18.218;2023-02-28T13:06:18;102821.22;;;4.90;50.15
75551;BME280;65071;53.082;18.218;2023-02-28T13:09:02;102818.39;;;4.94;49.78
75551;BME280;65071;53.082;18.218;2023-02-28T13:11:34;102818.89;;;4.99;51.60
75551;BME280;65071;53.082;18.218;2023-02-28T13:14:18;102814.11;;;5.02;50.64
75551;BME280;65071;53.082;18.218;2023-02-28T13:19:20;102805.00;;;5.10;50.13
75551;BME280;65071;53.082;18.218;2023-02-28T13:21:50;102806.98;;;5.14;50.25
75551;BME280;65071;53.082;18.218;2023-02-28T13:24:37;102810.92;;;5.18;50.91
75551;BME280;65071;53.082;18.218;2023-02-28T13:29:36;102801.03;;;5.19;51.09
75551;BME280;65071;53.082;18.218;2023-02-28T13:34:38;102799.23;;;5.20;50.26
75551;BME280;65071;53.082;18.218;2023-02-28T13:39:45;102792.60;;;5.20;47.36
75551;BME280;65071;53.082;18.218;2023-02-28T13:52:50;102777.86;;;5.31;47.93
75551;BME280;65071;53.082;18.218;2023-02-28T13:55:29;102773.27;;;5.34;48.19
75551;BME280;65071;53.082;18.218;2023-02-28T14:01:12;102774.91;;;5.36;48.95
75551;BME280;65071;53.082;18.218;2023-02-28T14:06:33;102758.70;;;5.40;48.38
75551;BME280;65071;53.082;18.218;2023-02-28T14:09:27;102752.98;;;5.40;49.11
75551;BME280;65071;53.082;18.218;2023-02-28T14:11:56;102754.55;;;5.37;48.56
75551;BME280;65071;53.082;18.218;2023-02-28T14:17:14;102750.48;;;5.32;49.57
75551;BME280;65071;53.082;18.218;2023-02-28T14:19:45;102750.08;;;5.30;49.40
75551;BME280;65071;53.082;18.218;2023-02-28T14:22:37;102750.02;;;5.28;48.66
75551;BME280;65071;53.082;18.218;2023-02-28T14:25:40;102751.45;;;5.27;49.32
75551;BME280;65071;53.082;18.218;2023-02-28T14:28:43;102753.14;;;5.25;49.40
75551;BME280;65071;53.082;18.218;2023-02-28T14:31:28;102748.40;;;5.23;49.97
75551;BME280;65071;53.082;18.218;2023-02-28T14:36:40;102733.48;;;5.22;50.03
75551;BME280;65071;53.082;18.218;2023-02-28T14:39:16;102729.30;;;5.20;49.15
75551;BME280;65071;53.082;18.218;2023-02-28T14:41:44;102730.74;;;5.20;49.36
75551;BME280;65071;53.082;18.218;2023-02-28T14:44:21;102730.17;;;5.17;49.25
75551;BME280;65071;53.082;18.218;2023-02-28T14:46:57;102728.84;;;5.15;49.56
75551;BME280;65071;53.082;18.218;2023-02-28T14:52:07;102731.98;;;5.08;49.11
75551;BME280;65071;53.082;18.218;2023-02-28T14:54:40;102730.61;;;5.07;48.77
75551;BME280;65071;53.082;18.218;2023-02-28T14:57:25;102734.77;;;5.06;49.18
75551;BME280;65071;53.082;18.218;2023-02-28T15:02:42;102734.33;;;5.00;48.26
75551;BME280;65071;53.082;18.218;2023-02-28T15:07:36;102738.37;;;4.97;48.38
75551;BME280;65071;53.082;18.218;2023-02-28T15:12:34;102739.71;;;4.91;47.76
75551;BME280;65071;53.082;18.218;2023-02-28T15:15:01;102736.05;;;4.89;48.53
75551;BME280;65071;53.082;18.218;2023-02-28T15:17:29;102743.02;;;4.85;47.86
75551;BME280;65071;53.082;18.218;2023-02-28T15:19:56;102746.91;;;4.82;48.42